Time;durP1;ratioP1;P1;durP2;ratioP2;P2;SDS_P1;SDS_P2;PMS_P1;PMS_P2;Temp;Humidity;BMP_temperature;BMP_pressure;BME280_temperature;BME280_humidity;BME280_pressure;Samples;Min_cycle;Max_cycle;Signal;HPM_P1;HPM_P2
2022/12/07 00:14:49;;;;;;;7.60;7.00;;;2.30;99.90;;;;;;6151908;23;20400;-49
2022/12/07 00:17:16;;;;;;;8.27;7.60;;;2.30;99.90;;;;;;5046396;28;20550;-49
2022/12/07 00:19:42;;;;;;;7.50;6.90;;;2.30;99.90;;;;;;5051930;28;20442;-51
2022/12/07 00:22:09;;;;;;;9.00;7.77;;;2.30;99.90;;;;;;5047153;28;21007;-50
2022/12/07 00:24:35;;;;;;;7.80;7.10;;;2.30;99.90;;;;;;5054542;28;20957;-49
2022/12/07 00:27:02;;;;;;;8.73;7.70;;;2.30;99.90;;;;;;5033652;28;20482;-49
2022/12/07 00:29:28;;;;;;;9.03;8.20;;;2.30;99.90;;;;;;5034394;28;20463;-49
2022/12/07 00:31:56;;;;;;;8.20;7.50;;;2.30;99.90;;;;;;5033567;28;20490;-50
2022/12/07 00:34:23;;;;;;;9.63;8.50;;;2.30;99.90;;;;;;5034262;28;20487;-51
2022/12/07 00:36:50;;;;;;;7.40;6.80;;;2.20;99.90;;;;;;5029020;28;20482;-49
2022/12/07 00:39:17;;;;;;;8.10;7.30;;;2.20;99.90;;;;;;5033624;28;20491;-49
2022/12/07 00:41:44;;;;;;;8.50;6.73;;;2.20;99.90;;;;;;5032820;28;20892;-49
2022/12/07 00:44:10;;;;;;;9.03;7.60;;;2.20;99.90;;;;;;5033214;28;20540;-50
2022/12/07 00:46:37;;;;;;;7.20;6.60;;;2.10;99.90;;;;;;5032346;28;20517;-50
2022/12/07 00:49:05;;;;;;;8.40;7.70;;;2.10;99.90;;;;;;5033380;28;20541;-50
2022/12/07 00:51:31;;;;;;;7.27;6.60;;;2.10;99.90;;;;;;5033563;28;20597;-54
2022/12/07 00:53:58;;;;;;;7.77;7.07;;;2.00;99.90;;;;;;5027986;28;20549;-55
2022/12/07 00:56:27;;;;;;;7.20;6.50;;;2.00;99.90;;;;;;5032549;28;20995;-55
2022/12/07 00:58:55;;;;;;;7.57;6.97;;;1.90;99.90;;;;;;5031461;28;20964;-54
2022/12/07 01:01:22;;;;;;;8.50;7.70;;;1.90;99.90;;;;;;5029033;28;21015;-54
2022/12/07 01:03:49;;;;;;;7.67;7.03;;;1.80;99.90;;;;;;5032235;28;20467;-54
2022/12/07 01:06:19;;;;;;;7.43;6.87;;;1.90;99.90;;;;;;5030078;28;20522;-51
2022/12/07 01:08:45;;;;;;;7.83;7.13;;;1.80;99.90;;;;;;5030224;28;20486;-51
2022/12/07 01:11:15;;;;;;;7.30;6.70;;;1.90;99.90;;;;;;5031484;28;20814;-52
2022/12/07 01:13:42;;;;;;;7.83;7.13;;;1.90;99.90;;;;;;5033077;28;20516;-51
2022/12/07 01:16:10;;;;;;;7.00;6.40;;;1.90;99.90;;;;;;5032396;28;20486;-51
2022/12/07 01:18:37;;;;;;;8.13;7.40;;;1.90;99.90;;;;;;5030415;28;20460;-52
2022/12/07 01:21:06;;;;;;;7.83;7.07;;;1.90;99.90;;;;;;5031719;28;20988;-50
2022/12/07 01:23:35;;;;;;;8.93;7.67;;;1.80;99.90;;;;;;5032382;28;20509;-53
2022/12/07 01:26:04;;;;;;;7.80;7.20;;;1.80;99.90;;;;;;5031223;28;20490;-52
2022/12/07 01:28:31;;;;;;;7.23;6.63;;;1.90;99.90;;;;;;5031359;28;20517;-53
2022/12/07 01:31:01;;;;;;;8.00;7.30;;;1.90;99.90;;;;;;5031648;28;20459;-51
2022/12/07 01:33:29;;;;;;;7.03;6.43;;;1.90;99.90;;;;;;5033472;28;20486;-51
2022/12/07 01:36:01;;;;;;;7.30;6.70;;;1.90;99.90;;;;;;5033010;28;20976;-53
2022/12/07 01:38:27;;;;;;;8.03;7.23;;;1.90;99.90;;;;;;5033085;28;20563;-52
2022/12/07 01:40:59;;;;;;;7.40;6.80;;;1.90;99.90;;;;;;5026377;28;20458;-52
2022/12/07 01:43:29;;;;;;;7.53;6.90;;;2.00;99.90;;;;;;5032415;28;20469;-51
2022/12/07 01:45:57;;;;;;;7.77;7.10;;;1.90;99.90;;;;;;5032984;28;20486;-51
2022/12/07 01:48:28;;;;;;;7.53;6.93;;;1.90;99.90;;;;;;5033455;28;20466;-52
2022/12/07 01:50:56;;;;;;;7.90;7.20;;;1.90;99.90;;;;;;5030985;28;20526;-51
2022/12/07 01:53:27;;;;;;;7.70;7.03;;;1.90;99.90;;;;;;5032565;28;20467;-51
2022/12/07 01:55:55;;;;;;;7.30;6.70;;;1.90;99.90;;;;;;5029998;28;20548;-51
2022/12/07 01:58:24;;;;;;;7.57;6.87;;;1.80;99.90;;;;;;5028582;28;20466;-51
2022/12/07 02:00:50;;;;;;;6.67;6.07;;;1.80;99.90;;;;;;5028768;28;21035;-51
2022/12/07 02:03:22;;;;;;;6.13;5.63;;;1.70;99.90;;;;;;5031096;28;20467;-52
2022/12/07 02:05:50;;;;;;;8.90;6.20;;;1.70;99.90;;;;;;5030461;28;20595;-51
2022/12/07 02:08:18;;;;;;;6.37;5.83;;;1.70;99.90;;;;;;5031432;28;20463;-50
2022/12/07 02:10:44;;;;;;;6.80;6.27;;;1.60;99.90;;;;;;5027427;28;21098;-49
2022/12/07 02:13:16;;;;;;;7.53;6.83;;;1.60;99.90;;;;;;5032230;28;20505;-50
2022/12/07 02:16:01;;;;;;;7.03;6.30;;;1.60;99.90;;;;;;5028614;28;20486;-50
2022/12/07 02:18:39;;;;;;;6.83;5.70;;;1.60;99.90;;;;;;5029297;28;21041;-50
2022/12/07 02:21:11;;;;;;;6.37;5.87;;;1.60;99.90;;;;;;5024444;28;20463;-50
2022/12/07 02:23:51;;;;;;;6.40;5.87;;;1.60;99.90;;;;;;5030087;28;20832;-50
2022/12/07 02:26:41;;;;;;;6.70;6.10;;;1.50;99.90;;;;;;5022137;28;20493;-50
2022/12/07 02:29:23;;;;;;;6.30;5.80;;;1.50;99.90;;;;;;5008133;28;20509;-49
2022/12/07 02:31:57;;;;;;;11.57;5.50;;;1.40;99.90;;;;;;5028147;28;20462;-49
2022/12/07 02:34:29;;;;;;;6.90;6.30;;;1.40;99.90;;;;;;5031129;28;20875;-50
2022/12/07 02:37:06;;;;;;;6.50;6.00;;;1.50;99.90;;;;;;5029822;28;20474;-50
2022/12/07 02:39:41;;;;;;;6.00;5.50;;;1.50;99.90;;;;;;5027399;28;20462;-50
2022/12/07 02:42:14;;;;;;;6.37;5.73;;;1.60;99.90;;;;;;5021949;28;20463;-50
2022/12/07 02:44:44;;;;;;;6.20;5.70;;;1.50;99.90;;;;;;5029292;28;20458;-50
2022/12/07 02:47:15;;;;;;;5.67;5.20;;;1.50;99.90;;;;;;5028584;28;20486;-50
2022/12/07 02:49:42;;;;;;;7.47;5.90;;;1.60;99.90;;;;;;5028326;28;20536;-50
2022/12/07 02:52:09;;;;;;;5.40;5.00;;;1.50;99.90;;;;;;5028729;28;20508;-50
2022/12/07 02:54:36;;;;;;;5.40;5.00;;;1.50;99.90;;;;;;5026079;28;20497;-50
2022/12/07 02:57:13;;;;;;;7.20;6.50;;;1.50;99.90;;;;;;5028244;28;20544;-50
2022/12/07 02:59:53;;;;;;;8.83;6.10;;;1.50;99.90;;;;;;5032050;28;20466;-50
2022/12/07 03:02:26;;;;;;;5.40;5.00;;;1.50;99.90;;;;;;5025274;28;20482;-50
2022/12/07 03:05:03;;;;;;;6.80;6.20;;;1.50;99.90;;;;;;5029102;28;20458;-50
2022/12/07 03:07:39;;;;;;;7.47;6.77;;;1.50;99.90;;;;;;5027015;28;20559;-50
2022/12/07 03:10:15;;;;;;;6.77;6.10;;;1.40;99.90;;;;;;5030008;28;20458;-50
2022/12/07 03:12:49;;;;;;;6.23;5.63;;;1.50;99.90;;;;;;5034293;28;20488;-49
2022/12/07 03:15:22;;;;;;;6.80;6.20;;;1.50;99.90;;;;;;5031264;28;20536;-50
2022/12/07 03:17:51;;;;;;;6.47;5.73;;;1.50;99.90;;;;;;5017974;28;20459;-50
2022/12/07 03:20:22;;;;;;;11.43;5.27;;;1.50;99.90;;;;;;5029750;28;20884;-50
2022/12/07 03:22:49;;;;;;;8.50;7.33;;;1.50;99.90;;;;;;5029596;28;20512;-49
2022/12/07 03:25:17;;;;;;;10.50;6.40;;;1.50;99.90;;;;;;5030473;28;20528;-50
2022/12/07 03:27:51;;;;;;;6.03;5.53;;;1.50;99.90;;;;;;5037071;28;20520;-50
2022/12/07 03:30:23;;;;;;;5.70;5.30;;;1.50;99.90;;;;;;5024078;28;20467;-50
2022/12/07 03:32:53;;;;;;;7.30;5.97;;;1.50;99.90;;;;;;5030715;28;20489;-51
2022/12/07 03:35:25;;;;;;;7.87;7.07;;;1.40;99.90;;;;;;5025970;28;20482;-50
2022/12/07 03:37:56;;;;;;;6.73;6.13;;;1.50;99.90;;;;;;5028486;28;20458;-50
2022/12/07 03:40:26;;;;;;;6.80;6.20;;;1.50;99.90;;;;;;5029861;28;20459;-50
2022/12/07 03:42:55;;;;;;;7.33;5.80;;;1.50;99.90;;;;;;5028534;28;21002;-50
2022/12/07 03:45:33;;;;;;;7.33;6.47;;;1.50;99.90;;;;;;5029748;28;20544;-49
2022/12/07 03:48:07;;;;;;;8.40;7.60;;;1.50;99.90;;;;;;5031150;28;20435;-50
2022/12/07 03:50:42;;;;;;;9.30;8.40;;;1.50;99.90;;;;;;5019145;28;20458;-50
2022/12/07 03:53:16;;;;;;;9.77;8.37;;;1.50;99.90;;;;;;5022801;28;20524;-50
2022/12/07 03:55:45;;;;;;;10.03;8.90;;;1.50;99.90;;;;;;5031604;28;20463;-50
2022/12/07 03:58:15;;;;;;;12.10;8.90;;;1.50;99.90;;;;;;5028461;28;20985;-49
2022/12/07 04:00:44;;;;;;;11.03;9.60;;;1.50;99.90;;;;;;5029351;28;20512;-50
2022/12/07 04:03:11;;;;;;;10.47;9.10;;;1.50;99.90;;;;;;5019584;28;20443;-50
2022/12/07 04:05:38;;;;;;;12.50;9.10;;;1.50;99.90;;;;;;5024089;28;20506;-50
2022/12/07 04:08:05;;;;;;;10.70;9.50;;;1.60;99.90;;;;;;5022931;28;20451;-49
2022/12/07 04:10:31;;;;;;;12.43;9.90;;;1.50;99.90;;;;;;5031328;28;20521;-50
2022/12/07 04:12:58;;;;;;;10.43;9.37;;;1.50;99.90;;;;;;5028769;28;20513;-50
2022/12/07 04:15:25;;;;;;;15.00;10.30;;;1.60;99.90;;;;;;5024869;28;20494;-50
2022/12/07 04:17:53;;;;;;;13.00;10.23;;;1.60;99.90;;;;;;5025228;28;20825;-50
2022/12/07 04:20:20;;;;;;;11.90;10.60;;;1.60;99.90;;;;;;5029311;28;20470;-50
2022/12/07 04:22:47;;;;;;;11.80;10.57;;;1.60;99.90;;;;;;5031447;28;20508;-49
2022/12/07 04:25:13;;;;;;;12.67;11.10;;;1.60;99.90;;;;;;5031305;28;20819;-50
2022/12/07 04:27:40;;;;;;;12.73;11.43;;;1.70;99.90;;;;;;5029557;28;20888;-51
2022/12/07 04:30:08;;;;;;;12.87;11.47;;;1.70;99.90;;;;;;5028596;28;20513;-50
2022/12/07 04:32:34;;;;;;;14.00;11.30;;;1.70;99.90;;;;;;5029037;28;20506;-50
2022/12/07 04:35:02;;;;;;;14.53;12.30;;;1.70;99.90;;;;;;5029728;28;20458;-50
2022/12/07 04:37:29;;;;;;;15.13;11.90;;;1.70;99.90;;;;;;5028858;28;20442;-49
2022/12/07 04:39:56;;;;;;;15.93;12.50;;;1.80;99.90;;;;;;5027313;28;20458;-49
2022/12/07 04:42:22;;;;;;;14.20;11.63;;;1.70;99.90;;;;;;5028665;28;21026;-50
2022/12/07 04:44:49;;;;;;;23.63;12.50;;;1.80;99.90;;;;;;5030548;28;20832;-50
2022/12/07 04:47:15;;;;;;;14.90;12.80;;;1.80;99.90;;;;;;5028623;28;20493;-50
2022/12/07 04:49:42;;;;;;;19.80;13.30;;;1.80;99.90;;;;;;5030971;28;20471;-50
2022/12/07 04:52:10;;;;;;;15.90;13.60;;;1.80;99.90;;;;;;5030864;28;20494;-50
2022/12/07 04:54:36;;;;;;;15.60;13.80;;;1.90;99.90;;;;;;5031745;28;20466;-50
2022/12/07 04:57:03;;;;;;;17.00;13.70;;;1.90;99.90;;;;;;5033002;28;20536;-51
2022/12/07 04:59:30;;;;;;;15.83;12.87;;;1.90;99.90;;;;;;5031432;28;20462;-50
2022/12/07 05:01:56;;;;;;;15.37;13.47;;;2.00;99.90;;;;;;5031102;28;20520;-50
2022/12/07 05:04:23;;;;;;;17.30;14.33;;;2.00;99.90;;;;;;5032625;28;20493;-50
2022/12/07 05:06:49;;;;;;;16.83;15.03;;;2.00;99.90;;;;;;5033104;28;20859;-50
2022/12/07 05:09:17;;;;;;;16.10;14.47;;;2.00;99.90;;;;;;5030614;28;20468;-49
2022/12/07 05:11:44;;;;;;;18.90;14.03;;;2.00;99.90;;;;;;5030422;28;20505;-50
2022/12/07 05:14:13;;;;;;;17.20;13.83;;;2.10;99.90;;;;;;5032806;28;20528;-50
2022/12/07 05:16:41;;;;;;;16.50;13.80;;;2.10;99.90;;;;;;5032704;28;20567;-50
2022/12/07 05:19:08;;;;;;;19.30;14.50;;;2.20;99.90;;;;;;5027973;28;20517;-48
2022/12/07 05:21:35;;;;;;;20.60;15.93;;;2.20;99.90;;;;;;5025599;28;20913;-49
2022/12/07 05:24:02;;;;;;;15.93;14.27;;;2.20;99.90;;;;;;5032354;28;20455;-50
2022/12/07 05:26:30;;;;;;;17.20;14.40;;;2.20;99.90;;;;;;5030060;28;20903;-52
2022/12/07 05:28:57;;;;;;;18.87;14.93;;;2.30;99.90;;;;;;5030774;28;20462;-52
2022/12/07 05:31:25;;;;;;;21.30;15.70;;;2.40;1.40;;;;;;5030326;28;20458;-52
2022/12/07 05:33:52;;;;;;;17.97;15.30;;;2.40;99.90;;;;;;5027742;28;20463;-51
2022/12/07 05:36:19;;;;;;;14.97;13.47;;;2.40;99.90;;;;;;5030056;28;20482;-52
2022/12/07 05:38:45;;;;;;;16.60;14.87;;;2.40;1.40;;;;;;5017529;28;20912;-52
2022/12/07 05:43:56;;;;;;;18.40;15.80;;;2.50;99.90;;;;;;5025022;28;20549;-52
2022/12/07 05:46:23;;;;;;;17.37;13.80;;;2.50;99.90;;;;;;5021707;28;20584;-51
2022/12/07 05:48:50;;;;;;;15.90;14.20;;;2.50;99.90;;;;;;5027299;28;20459;-51
2022/12/07 05:51:17;;;;;;;17.37;14.73;;;2.50;99.90;;;;;;5027778;28;20463;-52
2022/12/07 05:53:43;;;;;;;15.17;13.40;;;2.60;99.90;;;;;;5027438;28;20462;-51
2022/12/07 05:56:10;;;;;;;19.20;14.40;;;2.60;99.90;;;;;;5024351;28;20491;-54
2022/12/07 06:01:22;;;;;;;17.03;14.97;;;2.60;99.90;;;;;;5022284;28;20831;-52
2022/12/07 06:03:49;;;;;;;15.20;13.60;;;2.60;99.90;;;;;;5027338;28;20509;-52
2022/12/07 06:06:15;;;;;;;20.77;15.43;;;2.70;99.90;;;;;;5029957;28;20482;-51
2022/12/07 06:08:42;;;;;;;18.90;14.43;;;2.70;99.90;;;;;;5027528;28;20459;-51
2022/12/07 06:13:53;;;;;;;15.60;13.63;;;2.70;99.90;;;;;;5026711;28;20548;-51
2022/12/07 06:16:19;;;;;;;19.30;14.17;;;2.70;99.90;;;;;;5021979;28;20869;-51
2022/12/07 06:18:47;;;;;;;17.93;14.00;;;2.70;99.90;;;;;;5028458;28;20533;-55
2022/12/07 06:21:14;;;;;;;15.87;13.30;;;2.70;99.90;;;;;;5027962;28;20960;-55
2022/12/07 06:23:41;;;;;;;22.40;12.83;;;2.70;99.90;;;;;;5026811;28;20459;-55
2022/12/07 06:26:07;;;;;;;14.43;12.60;;;2.70;99.90;;;;;;5028016;28;20487;-54
2022/12/07 06:28:34;;;;;;;13.50;12.20;;;2.70;99.90;;;;;;5031626;28;20540;-53
2022/12/07 06:31:01;;;;;;;13.53;12.17;;;2.70;99.90;;;;;;5027865;28;20478;-55
2022/12/07 06:33:29;;;;;;;12.70;11.40;;;2.70;99.90;;;;;;5025913;28;20533;-54
2022/12/07 06:35:57;;;;;;;14.40;11.23;;;2.70;99.90;;;;;;5029903;28;20483;-54
2022/12/07 06:38:24;;;;;;;15.63;13.07;;;2.70;99.90;;;;;;5030828;28;20987;-54
2022/12/07 06:40:51;;;;;;;13.73;10.97;;;2.70;99.90;;;;;;5027131;28;20468;-55
2022/12/07 06:43:17;;;;;;;13.07;11.47;;;2.80;99.90;;;;;;5034814;28;20462;-55
2022/12/07 06:45:44;;;;;;;11.37;9.90;;;2.80;99.90;;;;;;5029641;28;20485;-53
2022/12/07 06:48:10;;;;;;;16.00;11.70;;;2.80;99.90;;;;;;5027792;28;20486;-54
2022/12/07 06:50:37;;;;;;;12.20;11.00;;;2.80;99.90;;;;;;5028013;28;20517;-54
2022/12/07 06:53:05;;;;;;;12.73;10.03;;;2.90;99.90;;;;;;5028190;28;20463;-54
2022/12/07 06:55:32;;;;;;;15.63;11.77;;;2.80;99.90;;;;;;5018716;28;20950;-55
2022/12/07 06:57:58;;;;;;;12.97;11.30;;;2.80;99.90;;;;;;5031780;28;20825;-55
2022/12/07 07:00:25;;;;;;;13.50;11.60;;;2.80;99.90;;;;;;5027238;28;20463;-54
2022/12/07 07:02:51;;;;;;;14.10;11.23;;;2.80;99.90;;;;;;5026819;28;20490;-55
2022/12/07 07:05:18;;;;;;;14.30;11.57;;;2.90;99.90;;;;;;5024713;28;20490;-55
2022/12/07 07:07:45;;;;;;;12.37;10.40;;;2.90;99.90;;;;;;5029284;28;20487;-55
2022/12/07 07:10:13;;;;;;;11.70;10.27;;;2.90;99.90;;;;;;5028272;28;20840;-54
2022/12/07 07:12:39;;;;;;;10.70;9.60;;;2.90;99.90;;;;;;5028489;28;20854;-54
2022/12/07 07:15:07;;;;;;;12.73;9.97;;;2.90;99.90;;;;;;5023594;28;20984;-52
2022/12/07 07:17:33;;;;;;;10.00;8.93;;;2.90;99.90;;;;;;5027878;28;20506;-51
2022/12/07 07:20:00;;;;;;;10.40;9.30;;;2.90;99.90;;;;;;5024302;28;20512;-51
2022/12/07 07:22:26;;;;;;;10.40;9.27;;;2.90;99.90;;;;;;5029674;28;20466;-51
2022/12/07 07:24:53;;;;;;;9.50;8.50;;;2.90;99.90;;;;;;5029318;28;21501;-52
2022/12/07 07:27:21;;;;;;;12.10;7.83;;;3.00;99.90;;;;;;5029526;28;20897;-52
2022/12/07 07:30:25;;;;;;;11.10;9.37;;;3.00;99.90;;;;;;5030381;28;20466;-52
2022/12/07 07:32:52;;;;;;;9.63;8.60;;;3.00;99.90;;;;;;5024125;28;20559;-50
2022/12/07 07:35:19;;;;;;;9.43;8.43;;;3.10;99.90;;;;;;5024990;28;20511;-51
2022/12/07 07:37:45;;;;;;;10.93;8.27;;;3.10;99.90;;;;;;5027878;28;20458;-50
2022/12/07 07:40:13;;;;;;;8.70;7.87;;;3.10;99.90;;;;;;5027713;28;20906;-51
2022/12/07 07:42:41;;;;;;;10.13;8.47;;;3.10;99.90;;;;;;5030124;28;20537;-51
2022/12/07 07:45:08;;;;;;;11.90;7.20;;;3.10;1.40;;;;;;5028966;28;20557;-50
2022/12/07 07:47:35;;;;;;;7.47;6.87;;;3.10;99.90;;;;;;5031756;28;20518;-51
2022/12/07 07:50:01;;;;;;;6.63;6.03;;;3.10;99.90;;;;;;5030573;28;21019;-51
2022/12/07 07:52:28;;;;;;;5.53;4.95;;;3.10;99.90;;;;;;5027253;28;20536;-53
2022/12/07 07:54:54;;;;;;;7.03;5.70;;;3.10;99.90;;;;;;5026774;28;20334;-52
2022/12/07 07:57:21;;;;;;;6.10;5.53;;;3.10;99.90;;;;;;5028999;28;20534;-50
2022/12/07 07:59:49;;;;;;;6.20;5.60;;;3.10;99.90;;;;;;5023835;28;21064;-50
2022/12/07 08:02:17;;;;;;;5.67;5.13;;;3.10;99.90;;;;;;5028171;28;20550;-51
2022/12/07 08:04:44;;;;;;;5.10;4.70;;;3.10;99.90;;;;;;5028054;28;21195;-51
2022/12/07 08:07:11;;;;;;;4.83;4.47;;;3.20;99.90;;;;;;5029142;28;20565;-51
2022/12/07 08:09:38;;;;;;;5.63;4.97;;;3.20;99.90;;;;;;5028785;28;20558;-51
2022/12/07 08:12:05;;;;;;;5.83;4.40;;;3.10;99.90;;;;;;5029026;28;20541;-50
2022/12/07 08:14:32;;;;;;;4.43;4.03;;;3.10;99.90;;;;;;5026895;28;20549;-51
2022/12/07 08:17:00;;;;;;;5.50;4.23;;;3.10;99.90;;;;;;5027454;28;20555;-50
2022/12/07 08:19:26;;;;;;;4.40;4.00;;;3.20;99.90;;;;;;5028001;28;20540;-51
2022/12/07 08:21:55;;;;;;;4.20;3.80;;;3.20;99.90;;;;;;5027816;28;20562;-52
2022/12/07 08:24:21;;;;;;;3.90;3.00;;;3.20;99.90;;;;;;5026374;28;20508;-51
2022/12/07 08:26:48;;;;;;;6.00;4.47;;;3.20;99.90;;;;;;5030570;28;20560;-51
2022/12/07 08:29:14;;;;;;;3.90;3.60;;;3.20;99.90;;;;;;5034153;28;20521;-50
2022/12/07 08:31:41;;;;;;;3.50;3.30;;;3.20;99.90;;;;;;5028344;28;20566;-50
2022/12/07 08:34:11;;;;;;;4.70;4.20;;;3.20;99.90;;;;;;5030353;28;20458;-50
2022/12/07 08:36:38;;;;;;;4.00;3.70;;;3.20;99.90;;;;;;5031919;28;20505;-51
2022/12/07 08:39:05;;;;;;;3.70;3.20;;;3.20;99.90;;;;;;5030084;28;20574;-50
2022/12/07 08:41:31;;;;;;;3.40;3.20;;;3.20;99.90;;;;;;5031525;28;20520;-51
2022/12/07 08:43:58;;;;;;;3.37;3.17;;;3.20;99.90;;;;;;5030234;28;20546;-51
2022/12/07 08:46:29;;;;;;;3.63;3.07;;;3.20;99.90;;;;;;5032529;28;20525;-51
2022/12/07 08:48:59;;;;;;;4.50;3.40;;;3.20;99.90;;;;;;5029510;28;20573;-51
2022/12/07 08:51:28;;;;;;;6.90;3.80;;;3.30;99.90;;;;;;5021599;28;20546;-50
2022/12/07 08:53:58;;;;;;;3.20;3.00;;;3.30;99.90;;;;;;5029866;28;20541;-50
2022/12/07 08:56:25;;;;;;;2.90;2.70;;;3.30;99.90;;;;;;5031834;28;20565;-50
2022/12/07 08:58:52;;;;;;;3.30;3.10;;;3.20;99.90;;;;;;5031911;28;20544;-51
2022/12/07 09:01:19;;;;;;;3.07;2.87;;;3.20;99.90;;;;;;5032662;28;20549;-50
2022/12/07 09:03:45;;;;;;;2.90;2.70;;;3.20;99.90;;;;;;5030685;28;20557;-51
2022/12/07 09:06:12;;;;;;;2.83;2.63;;;3.20;99.90;;;;;;5032430;28;20514;-51
2022/12/07 09:08:43;;;;;;;7.20;2.80;;;3.20;99.90;;;;;;5029178;28;20565;-51
2022/12/07 09:11:09;;;;;;;4.00;3.60;;;3.20;99.90;;;;;;5028715;28;20471;-51
2022/12/07 09:13:36;;;;;;;3.37;3.10;;;3.20;99.90;;;;;;5029477;28;20546;-51
2022/12/07 09:16:02;;;;;;;2.50;2.30;;;3.20;99.90;;;;;;5029421;28;20509;-51
2022/12/07 09:18:29;;;;;;;4.10;2.13;;;3.30;99.90;;;;;;5032443;28;20546;-51
2022/12/07 09:20:57;;;;;;;5.80;2.00;;;3.30;27.30;;;;;;5030503;28;20501;-50
2022/12/07 09:23:25;;;;;;;2.20;2.10;;;3.30;26.60;;;;;;5030720;28;20463;-51
2022/12/07 09:25:53;;;;;;;5.00;2.43;;;3.30;28.80;;;;;;5031027;28;20947;-51
2022/12/07 09:28:19;;;;;;;2.60;2.40;;;3.20;33.00;;;;;;5033287;28;20555;-52
2022/12/07 09:30:47;;;;;;;5.30;2.50;;;3.20;26.40;;;;;;5031898;28;20546;-51
2022/12/07 09:33:14;;;;;;;2.30;2.20;;;3.10;49.20;;;;;;5031705;28;20852;-52
2022/12/07 09:35:45;;;;;;;3.37;2.93;;;3.10;45.90;;;;;;5032425;28;20570;-52
2022/12/07 09:38:12;;;;;;;2.73;2.47;;;3.10;53.10;;;;;;5024788;28;20459;-50
2022/12/07 09:40:39;;;;;;;2.77;2.67;;;3.10;50.10;;;;;;5033184;28;20463;-51
2022/12/07 09:43:14;;;;;;;3.00;2.70;;;3.10;46.30;;;;;;5032383;28;20470;-51
2022/12/07 09:45:40;;;;;;;2.40;2.27;;;3.10;42.00;;;;;;5028438;28;20481;-51
2022/12/07 09:48:18;;;;;;;3.33;3.00;;;3.00;39.60;;;;;;5030580;28;20479;-52
2022/12/07 09:50:44;;;;;;;2.50;2.40;;;3.00;56.30;;;;;;5033543;28;20967;-51
2022/12/07 09:53:16;;;;;;;3.00;2.10;;;3.00;48.30;;;;;;5031585;28;20465;-50
2022/12/07 09:55:44;;;;;;;2.07;1.97;;;3.00;51.90;;;;;;5031286;28;20479;-50
2022/12/07 09:58:21;;;;;;;2.90;2.70;;;3.00;61.40;;;;;;5028029;28;20532;-51
2022/12/07 10:00:48;;;;;;;1.87;1.77;;;3.10;59.80;;;;;;5026179;28;20557;-50
2022/12/07 10:03:14;;;;;;;5.27;2.30;;;3.00;89.10;;;;;;5028041;28;20471;-51
2022/12/07 10:05:44;;;;;;;2.33;2.23;;;3.10;80.60;;;;;;5026477;28;21030;-51
2022/12/07 10:08:12;;;;;;;1.40;1.40;;;3.20;86.40;;;;;;5029506;28;20483;-51
2022/12/07 10:10:39;;;;;;;2.07;1.97;;;3.40;99.90;;;;;;5031726;28;20451;-51
2022/12/07 10:13:07;;;;;;;2.10;2.00;;;3.80;99.90;;;;;;5026254;28;20465;-51
2022/12/07 10:15:48;;;;;;;2.23;2.00;;;4.50;99.90;;;;;;5030053;28;20548;-51
2022/12/07 10:18:27;;;;;;;2.90;1.80;;;4.60;99.90;;;;;;5029464;28;20455;-51
2022/12/07 10:21:03;;;;;;;1.70;1.60;;;4.20;99.90;;;;;;5026160;28;20940;-51
2022/12/07 10:23:30;;;;;;;2.00;1.80;;;3.80;99.90;;;;;;5027680;28;20995;-50
2022/12/07 10:25:56;;;;;;;2.83;1.57;;;3.50;99.90;;;;;;5028526;28;20823;-51
2022/12/07 10:28:23;;;;;;;1.93;1.30;;;3.40;99.90;;;;;;5026388;28;20486;-51
2022/12/07 10:30:56;;;;;;;2.07;2.00;;;3.50;99.90;;;;;;5027836;28;20463;-50
2022/12/07 10:33:34;;;;;;;2.07;1.97;;;3.50;99.90;;;;;;5024224;28;20560;-51
2022/12/07 10:36:16;;;;;;;2.17;2.07;;;3.40;99.90;;;;;;5028083;28;20842;-51
2022/12/07 10:38:47;;;;;;;1.63;1.53;;;3.50;99.90;;;;;;5028350;28;20451;-58
2022/12/07 10:41:13;;;;;;;4.83;2.37;;;3.50;99.90;;;;;;5027947;28;20450;-51
2022/12/07 10:43:49;;;;;;;3.77;1.77;;;3.60;94.80;;;;;;5026782;28;20490;-50
2022/12/07 10:46:53;;;;;;;2.20;2.10;;;3.70;99.90;;;;;;5019037;28;20489;-51
2022/12/07 10:49:41;;;;;;;2.17;2.03;;;3.70;99.90;;;;;;5008901;28;20514;-51
2022/12/07 10:52:18;;;;;;;2.20;2.00;;;3.70;86.00;;;;;;5025661;28;20810;-51
2022/12/07 10:54:54;;;;;;;2.40;2.20;;;3.40;88.40;;;;;;5025606;28;20500;-50
2022/12/07 10:57:37;;;;;;;2.67;2.47;;;3.50;88.40;;;;;;5023689;28;20521;-51
2022/12/07 11:00:14;;;;;;;2.80;2.60;;;3.30;81.70;;;;;;5026072;28;20550;-50
2022/12/07 11:03:06;;;;;;;9.23;2.70;;;3.40;75.70;;;;;;5026204;28;20462;-50
2022/12/07 11:05:42;;;;;;;3.47;2.50;;;3.30;77.50;;;;;;5021660;28;20483;-50
2022/12/07 11:08:18;;;;;;;4.00;2.17;;;3.40;76.00;;;;;;5027098;28;20518;-51
2022/12/07 11:10:51;;;;;;;3.37;2.40;;;3.40;70.90;;;;;;5026818;28;20528;-50
2022/12/07 11:13:36;;;;;;;2.60;2.03;;;3.40;75.80;;;;;;5026730;28;20524;-51
2022/12/07 11:16:20;;;;;;;5.30;2.70;;;3.40;70.10;;;;;;5026821;28;20491;-51
2022/12/07 11:18:59;;;;;;;3.07;2.87;;;3.40;69.80;;;;;;5020856;28;20455;-51
2022/12/07 11:21:31;;;;;;;3.67;3.43;;;3.40;71.20;;;;;;5019507;28;20458;-51
2022/12/07 11:24:04;;;;;;;4.83;3.70;;;3.40;61.80;;;;;;5018859;28;21139;-51
2022/12/07 11:26:51;;;;;;;3.73;3.00;;;3.40;59.90;;;;;;5021300;28;20514;-51
2022/12/07 11:29:41;;;;;;;3.57;2.70;;;3.50;59.10;;;;;;5022385;28;20487;-51
2022/12/07 11:32:16;;;;;;;3.73;3.00;;;3.40;63.00;;;;;;5025000;28;20467;-51
2022/12/07 11:34:55;;;;;;;3.53;2.97;;;3.30;65.10;;;;;;5025755;28;21013;-50
2022/12/07 11:37:26;;;;;;;3.17;2.83;;;3.30;70.30;;;;;;5019485;28;20455;-50
2022/12/07 11:39:59;;;;;;;4.73;2.90;;;3.30;67.20;;;;;;5019135;28;20482;-51
2022/12/07 11:42:28;;;;;;;4.00;3.00;;;3.30;63.60;;;;;;5024385;28;20462;-50
2022/12/07 11:45:00;;;;;;;3.20;2.90;;;3.40;59.80;;;;;;5023414;28;20908;-51
2022/12/07 11:47:35;;;;;;;9.93;2.90;;;3.40;60.50;;;;;;5022048;28;20532;-51
2022/12/07 11:50:16;;;;;;;3.43;3.23;;;3.40;61.50;;;;;;5023552;28;20600;-51
2022/12/07 11:52:48;;;;;;;3.00;2.80;;;3.50;59.00;;;;;;5022321;28;20454;-51
2022/12/07 11:55:22;;;;;;;3.53;3.23;;;3.60;59.40;;;;;;5023986;28;20479;-51
2022/12/07 11:57:55;;;;;;;9.70;4.10;;;3.60;64.70;;;;;;5018620;28;21038;-51
2022/12/07 12:00:22;;;;;;;4.07;3.67;;;3.60;66.70;;;;;;5023747;28;20473;-50
2022/12/07 12:02:54;;;;;;;3.33;3.00;;;3.60;62.50;;;;;;5023003;28;20462;-51
2022/12/07 12:05:25;;;;;;;13.07;2.67;;;3.60;70.80;;;;;;5024559;28;20510;-50
2022/12/07 12:08:01;;;;;;;4.30;3.20;;;3.70;63.70;;;;;;5021752;28;20494;-50
2022/12/07 12:10:37;;;;;;;2.63;2.47;;;3.70;64.30;;;;;;5024819;28;20454;-51
2022/12/07 12:13:24;;;;;;;3.17;2.80;;;3.70;61.70;;;;;;5024613;28;20477;-51
2022/12/07 12:16:08;;;;;;;3.33;2.47;;;3.90;75.30;;;;;;5025346;28;20565;-50
2022/12/07 12:18:49;;;;;;;3.30;2.60;;;3.90;70.10;;;;;;5024332;28;20454;-50
2022/12/07 12:21:20;;;;;;;3.93;3.33;;;4.00;76.40;;;;;;5017041;28;20472;-54
2022/12/07 12:23:51;;;;;;;5.07;2.93;;;4.00;77.70;;;;;;5018929;28;20589;-54
2022/12/07 12:26:20;;;;;;;6.13;3.20;;;4.00;72.50;;;;;;5024967;28;20478;-54
2022/12/07 12:28:55;;;;;;;3.10;2.90;;;3.90;73.50;;;;;;5026540;28;20479;-54
2022/12/07 12:31:38;;;;;;;3.70;3.40;;;3.80;75.40;;;;;;5019153;28;20809;-54
2022/12/07 12:34:31;;;;;;;9.47;5.30;;;3.80;76.00;;;;;;5016548;28;20541;-53
2022/12/07 12:36:59;;;;;;;6.63;4.70;;;3.80;66.70;;;;;;5017838;28;20514;-54
2022/12/07 12:39:26;;;;;;;7.70;3.27;;;3.90;70.40;;;;;;5023621;28;20518;-53
2022/12/07 12:42:06;;;;;;;3.10;2.90;;;3.90;71.50;;;;;;5018325;28;20958;-53
2022/12/07 12:44:41;;;;;;;2.97;2.77;;;3.90;71.00;;;;;;5022383;28;20466;-53
2022/12/07 12:47:40;;;;;;;3.50;2.80;;;3.90;71.60;;;;;;5017532;28;20555;-53
2022/12/07 12:50:20;;;;;;;4.73;2.37;;;3.80;65.90;;;;;;5020358;28;20974;-53
2022/12/07 12:52:51;;;;;;;4.87;3.10;;;3.90;59.90;;;;;;5019067;28;20469;-54
2022/12/07 12:55:52;;;;;;;5.20;3.00;;;3.90;64.10;;;;;;5019564;28;20478;-54
2022/12/07 12:58:48;;;;;;;3.37;3.07;;;3.90;68.90;;;;;;5022729;28;20463;-54
2022/12/07 13:01:48;;;;;;;4.93;2.80;;;3.90;64.10;;;;;;5020149;28;20466;-56
2022/12/07 13:05:01;;;;;;;10.13;3.67;;;3.90;67.30;;;;;;5018565;28;20466;-58
2022/12/07 13:07:59;;;;;;;7.33;3.57;;;3.80;64.90;;;;;;5024608;28;20501;-54
2022/12/07 13:10:37;;;;;;;2.87;2.57;;;3.80;63.80;;;;;;5025618;28;20577;-53
2022/12/07 13:13:24;;;;;;;8.63;3.97;;;3.80;62.00;;;;;;5020006;28;20474;-54
2022/12/07 13:15:54;;;;;;;2.90;2.67;;;3.80;62.30;;;;;;5012043;28;20548;-53
2022/12/07 13:18:26;;;;;;;5.40;2.70;;;3.70;64.10;;;;;;5018701;28;20469;-53
2022/12/07 13:20:55;;;;;;;4.03;2.77;;;3.70;64.20;;;;;;5014601;28;20498;-54
2022/12/07 13:23:33;;;;;;;4.33;2.17;;;3.60;59.40;;;;;;5015061;28;20520;-50
2022/12/07 13:26:16;;;;;;;2.50;2.30;;;3.60;57.80;;;;;;5015505;28;20502;-50
2022/12/07 13:28:46;;;;;;;3.83;2.67;;;3.70;56.80;;;;;;5020321;28;20458;-51
2022/12/07 13:31:26;;;;;;;4.10;2.67;;;3.70;54.90;;;;;;5018898;28;20505;-50
2022/12/07 13:33:53;;;;;;;5.97;2.90;;;3.70;56.30;;;;;;5030239;28;20509;-54